Time;durP1;ratioP1;P1;durP2;ratioP2;P2;SDS_P1;SDS_P2;PMS_P1;PMS_P2;Temp;Humidity;BMP_temperature;BMP_pressure;BME280_temperature;BME280_humidity;BME280_pressure;Samples;Min_cycle;Max_cycle;Signal;HPM_P1;HPM_P2
2022/10/18 00:01:44;;;;;;;15.83;10.32;;;;;;;8.99;61.06;102078.03;1780380;80;21273;-48
2022/10/18 00:04:12;;;;;;;20.27;11.08;;;;;;;9.02;60.01;102064.77;1764360;81;21046;-48
2022/10/18 00:06:40;;;;;;;16.12;9.38;;;;;;;9.14;59.30;102067.28;1744382;81;21042;-48
2022/10/18 00:09:06;;;;;;;16.75;10.20;;;;;;;9.24;58.95;102065.08;1741735;82;21553;-48
2022/10/18 00:11:32;;;;;;;17.25;10.60;;;;;;;9.29;58.65;102066.55;1765283;81;21032;-48
2022/10/18 00:13:59;;;;;;;21.87;10.45;;;;;;;9.29;58.69;102063.08;1743353;81;22292;-48
2022/10/18 00:16:27;;;;;;;15.55;10.28;;;;;;;9.24;58.94;102064.61;1765706;81;21007;-49
2022/10/18 00:18:54;;;;;;;16.77;10.15;;;;;;;9.21;59.41;102061.28;1753386;81;21050;-49
2022/10/18 00:21:22;;;;;;;17.65;10.08;;;;;;;9.21;59.67;102056.90;1752019;81;21235;-49
2022/10/18 00:23:50;;;;;;;15.35;10.30;;;;;;;9.20;59.89;102051.72;1758252;81;21494;-49
2022/10/18 00:26:22;;;;;;;14.53;10.15;;;;;;;9.13;60.10;102054.22;1763919;81;21154;-49
2022/10/18 00:28:56;;;;;;;17.50;10.63;;;;;;;9.03;60.36;102044.16;1753448;81;21494;-49
2022/10/18 00:31:35;;;;;;;15.90;10.00;;;;;;;8.97;60.63;102051.48;1764277;81;21534;-49
2022/10/18 00:34:06;;;;;;;18.23;10.90;;;;;;;8.88;60.82;102044.89;1759932;81;21059;-49
2022/10/18 00:36:33;;;;;;;17.40;10.95;;;;;;;8.77;61.13;102045.84;1763714;81;21042;-50
2022/10/18 00:39:01;;;;;;;18.35;10.18;;;;;;;8.68;61.42;102045.33;1757121;81;21485;-49
2022/10/18 00:41:30;;;;;;;21.90;11.65;;;;;;;8.64;61.58;102046.84;1740789;81;20987;-49
2022/10/18 00:44:06;;;;;;;20.85;11.25;;;;;;;8.63;61.52;102043.37;1723441;81;21071;-49
2022/10/18 00:46:35;;;;;;;12.43;5.50;;;;;;;8.61;61.39;102036.05;1697957;83;21086;-49
2022/10/18 00:49:15;;;;;;;16.95;10.78;;;;;;;8.67;61.36;102036.21;1739759;81;21181;-49
2022/10/18 00:51:52;;;;;;;20.00;10.30;;;;;;;8.78;60.68;102031.33;1759577;80;21066;-49
2022/10/18 00:54:19;;;;;;;16.07;10.28;;;;;;;8.93;59.85;102035.02;1776862;80;21027;-48
2022/10/18 00:56:46;;;;;;;16.65;10.98;;;;;;;9.05;59.21;102033.59;1749119;81;21070;-48
2022/10/18 00:59:14;;;;;;;14.80;10.20;;;;;;;9.13;58.39;102030.14;1774399;80;21237;-48
2022/10/18 01:01:43;;;;;;;15.20;10.20;;;;;;;9.22;57.95;102033.63;1721249;82;21117;-48
2022/10/18 01:04:11;;;;;;;15.75;10.78;;;;;;;9.27;57.60;102032.10;1732357;81;21055;-49
2022/10/18 01:07:04;;;;;;;14.80;10.88;;;;;;;9.29;57.29;102032.41;1757538;81;21130;-48
2022/10/18 01:09:41;;;;;;;17.80;11.08;;;;;;;9.29;57.16;102028.45;1760475;81;21077;-49
2022/10/18 01:12:29;;;;;;;17.92;10.93;;;;;;;9.26;57.15;102024.70;1730165;81;21133;-49
2022/10/18 01:15:14;;;;;;;21.15;11.33;;;;;;;9.25;57.01;102023.45;1752137;81;21113;-49
2022/10/18 01:18:14;;;;;;;19.32;11.10;;;;;;;9.24;56.81;102020.42;1735507;81;21115;-47
2022/10/18 01:20:52;;;;;;;17.35;11.30;;;;;;;9.24;56.48;102016.02;1760082;81;21530;-49
2022/10/18 01:23:54;;;;;;;17.07;11.22;;;;;;;9.26;56.37;102013.31;1757406;81;21608;-50
2022/10/18 01:26:41;;;;;;;21.25;11.40;;;;;;;9.26;56.41;102012.00;1744915;81;21140;-48
2022/10/18 01:29:38;;;;;;;20.23;11.03;;;;;;;9.20;56.85;102009.69;1732883;81;21089;-48
2022/10/18 01:32:10;;;;;;;10.72;5.50;;;;;;;9.14;56.89;102010.81;1755067;81;21003;-51
2022/10/18 01:34:36;;;;;;;18.75;10.43;;;;;;;9.13;56.51;102004.32;1761731;81;21065;-48
2022/10/18 01:37:05;;;;;;;18.48;11.33;;;;;;;9.13;56.53;102001.70;1722922;82;21109;-48
2022/10/18 01:39:36;;;;;;;16.50;11.97;;;;;;;9.12;56.37;102000.86;1749524;81;21217;-48
2022/10/18 01:42:06;;;;;;;17.80;11.38;;;;;;;9.12;56.27;101995.61;1748958;81;21110;-48
2022/10/18 01:44:34;;;;;;;24.95;11.12;;;;;;;9.09;56.39;101995.31;1763129;81;21478;-48
2022/10/18 01:47:00;;;;;;;18.45;11.45;;;;;;;9.10;56.46;101992.20;1735501;81;21034;-48
2022/10/18 01:49:28;;;;;;;18.00;11.40;;;;;;;9.14;56.39;101989.81;1732992;81;21015;-48
2022/10/18 01:51:54;;;;;;;16.30;11.10;;;;;;;9.14;56.22;101983.72;1755238;81;21773;-48
2022/10/18 01:54:25;;;;;;;19.62;11.88;;;;;;;9.15;56.07;101983.64;1760396;81;21074;-49
2022/10/18 01:57:03;;;;;;;18.98;10.50;;;;;;;9.14;56.01;101979.77;1741551;81;21105;-48
2022/10/18 01:59:37;;;;;;;19.57;11.78;;;;;;;9.14;55.94;101983.24;1734425;81;21610;-48
2022/10/18 02:02:34;;;;;;;19.42;11.60;;;;;;;9.11;55.96;101980.32;1746191;81;21149;-48
2022/10/18 02:05:27;;;;;;;17.62;11.00;;;;;;;9.07;56.48;101977.44;1692484;81;21332;-48
2022/10/18 02:08:28;;;;;;;17.42;10.65;;;;;;;9.03;56.46;101978.52;1743998;81;21036;-48
2022/10/18 02:11:05;;;;;;;16.93;10.78;;;;;;;9.03;56.16;101974.58;1759066;81;21055;-48
2022/10/18 02:13:40;;;;;;;15.88;10.48;;;;;;;9.03;55.99;101970.64;1761288;81;21074;-48
2022/10/18 02:16:11;;;;;;;15.13;11.30;;;;;;;9.03;56.07;101957.98;1747249;81;21133;-48
2022/10/18 02:18:49;;;;;;;20.60;12.10;;;;;;;9.01;56.35;101957.19;1738490;81;21110;-48
2022/10/18 02:21:17;;;;;;;18.70;10.78;;;;;;;8.99;56.62;101951.17;1753091;81;21051;-47
2022/10/18 02:23:45;;;;;;;18.30;10.48;;;;;;;8.96;56.61;101950.00;1750764;81;21135;-48
2022/10/18 02:26:13;;;;;;;20.77;11.73;;;;;;;8.93;56.69;101941.35;1762124;81;21066;-48
2022/10/18 02:28:41;;;;;;;17.55;10.95;;;;;;;8.93;56.58;101936.58;1762304;81;21053;-48
2022/10/18 02:31:43;;;;;;;16.55;11.18;;;;;;;8.93;56.29;101935.26;1747894;81;21208;-49
2022/10/18 02:34:19;;;;;;;16.82;11.48;;;;;;;8.95;56.29;101929.47;1745492;81;21052;-48
2022/10/18 02:36:58;;;;;;;;;;;;;;;8.95;56.26;101928.63;1755356;81;21069;-48
2022/10/18 02:39:29;;;;;;;17.02;11.40;;;;;;;8.95;56.15;101931.25;1739438;81;20217;-48
2022/10/18 02:41:56;;;;;;;18.02;11.65;;;;;;;8.92;56.13;101923.05;1763736;81;21038;-47
2022/10/18 02:44:23;;;;;;;16.70;10.65;;;;;;;8.92;56.00;101933.55;1765746;81;21254;-48
2022/10/18 02:46:50;;;;;;;17.77;11.00;;;;;;;8.92;55.81;101933.55;1764679;81;21030;-48
2022/10/18 02:49:17;;;;;;;17.20;10.93;;;;;;;8.94;55.64;101942.19;1765146;81;21097;-48
2022/10/18 02:51:44;;;;;;;18.75;10.63;;;;;;;8.95;55.57;101942.59;1759228;81;21510;-49
2022/10/18 02:54:11;;;;;;;17.40;11.68;;;;;;;8.95;55.55;101933.41;1766369;81;21058;-48
2022/10/18 02:56:37;;;;;;;20.68;11.25;;;;;;;8.97;55.52;101925.45;1765195;81;21235;-48
2022/10/18 02:59:06;;;;;;;18.20;10.35;;;;;;;8.96;55.40;101920.67;1753774;81;21030;-49
2022/10/18 03:01:34;;;;;;;17.73;10.82;;;;;;;8.99;55.23;101924.44;1759314;81;21057;-49
2022/10/18 03:04:02;;;;;;;20.17;11.88;;;;;;;9.02;55.12;101921.67;1736183;82;22343;-50
2022/10/18 03:06:29;;;;;;;17.12;11.20;;;;;;;9.02;55.20;101922.98;1752311;81;21089;-48
2022/10/18 03:08:55;;;;;;;14.73;10.13;;;;;;;9.02;55.24;101919.05;1754078;81;21228;-48
2022/10/18 03:11:22;;;;;;;19.82;10.10;;;;;;;9.03;55.16;101919.91;1764927;81;21082;-49
2022/10/18 03:13:50;;;;;;;15.23;10.30;;;;;;;9.04;55.09;101920.28;1765792;81;21498;-48
2022/10/18 03:16:17;;;;;;;14.85;10.35;;;;;;;9.04;55.04;101913.25;1756841;81;21027;-48
2022/10/18 03:18:44;;;;;;;16.62;10.43;;;;;;;9.04;55.02;101921.13;1765254;81;21067;-48
2022/10/18 03:21:12;;;;;;;19.30;10.98;;;;;;;9.04;55.03;101909.78;1764405;81;21246;-48
2022/10/18 03:23:40;;;;;;;19.32;11.03;;;;;;;9.02;54.93;101909.85;1761376;81;21061;-48
2022/10/18 03:26:09;;;;;;;15.88;11.45;;;;;;;9.05;54.92;101912.81;1761315;81;21596;-48
2022/10/18 03:28:35;;;;;;;16.02;10.95;;;;;;;9.04;54.87;101911.94;1764529;81;21033;-49
2022/10/18 03:31:03;;;;;;;15.75;10.28;;;;;;;9.03;54.88;101905.47;1760197;81;21059;-48
2022/10/18 03:33:30;;;;;;;16.93;11.12;;;;;;;9.02;55.03;101906.39;1765681;79;21252;-48
2022/10/18 03:35:57;;;;;;;18.05;10.80;;;;;;;8.99;54.96;101891.63;1763063;81;21069;-48
2022/10/18 03:38:23;;;;;;;22.10;11.63;;;;;;;9.00;54.94;101888.55;1753276;81;21102;-48
2022/10/18 03:40:51;;;;;;;18.65;10.25;;;;;;;8.98;55.05;101891.25;1751111;80;21383;-48
2022/10/18 03:43:17;;;;;;;17.98;9.83;;;;;;;8.95;55.25;101882.20;1760343;81;21514;-49
2022/10/18 03:45:44;;;;;;;16.85;10.65;;;;;;;8.92;55.53;101886.30;1744628;81;21403;-48
2022/10/18 03:48:11;;;;;;;16.67;11.10;;;;;;;8.89;55.69;101886.44;1759298;81;21109;-47
2022/10/18 03:50:38;;;;;;;15.58;10.43;;;;;;;8.87;55.68;101892.23;1745055;81;21177;-47
2022/10/18 03:53:04;;;;;;;23.42;11.88;;;;;;;8.85;55.65;101897.55;1734818;81;21050;-50
2022/10/18 03:55:31;;;;;;;16.10;10.03;;;;;;;8.85;55.66;101895.41;1762621;81;21072;-48
2022/10/18 03:57:58;;;;;;;16.93;10.68;;;;;;;8.83;55.46;101889.38;1766121;81;21134;-49
2022/10/18 04:00:25;;;;;;;15.28;11.65;;;;;;;8.83;55.29;101890.70;1764117;80;21073;-50
2022/10/18 04:02:52;;;;;;;18.27;11.60;;;;;;;8.84;55.21;101892.38;1750705;81;20995;-48
2022/10/18 04:05:18;;;;;;;15.32;11.30;;;;;;;8.84;55.19;101883.19;1741152;81;21101;-48
2022/10/18 04:07:46;;;;;;;18.57;10.98;;;;;;;8.83;55.13;101879.73;1750830;81;21050;-49
2022/10/18 04:10:13;;;;;;;17.42;10.82;;;;;;;8.84;55.14;101878.81;1755765;80;21188;-48
2022/10/18 04:12:41;;;;;;;18.05;11.28;;;;;;;8.85;55.10;101878.34;1747231;81;21504;-49
2022/10/18 04:15:09;;;;;;;16.77;11.00;;;;;;;8.82;55.05;101875.39;1741702;81;21512;-48
2022/10/18 04:17:37;;;;;;;18.40;11.65;;;;;;;8.82;55.04;101876.70;1748929;81;21114;-48
2022/10/18 04:20:06;;;;;;;21.65;10.95;;;;;;;8.82;55.10;101874.08;1756967;81;21086;-48
2022/10/18 04:22:34;;;;;;;15.38;11.08;;;;;;;8.80;55.14;101868.06;1736156;81;21314;-48
2022/10/18 04:25:01;;;;;;;18.12;11.68;;;;;;;8.81;55.17;101866.27;1756267;81;21085;-49
2022/10/18 04:27:27;;;;;;;21.07;11.83;;;;;;;8.78;55.47;101858.11;1762324;81;21106;-48
2022/10/18 04:29:54;;;;;;;16.52;11.48;;;;;;;8.75;55.61;101856.94;1750556;81;21512;-48
2022/10/18 04:32:21;;;;;;;17.02;11.03;;;;;;;8.75;55.78;101858.25;1747116;81;21138;-48
2022/10/18 04:34:48;;;;;;;17.42;11.97;;;;;;;8.76;55.92;101860.40;1743319;81;21266;-48
2022/10/18 04:37:14;;;;;;;14.63;11.43;;;;;;;8.73;55.94;101857.01;1770512;80;21027;-48
2022/10/18 04:39:45;;;;;;;15.13;10.82;;;;;;;8.72;55.95;101858.39;1785828;80;21473;-48
2022/10/18 04:42:09;;;;;;;17.65;11.10;;;;;;;8.72;55.86;101858.39;1782752;80;21153;-48
2022/10/18 04:44:35;;;;;;;17.23;11.05;;;;;;;8.72;55.90;101863.64;1764572;80;21140;-48
2022/10/18 04:47:02;;;;;;;17.12;10.80;;;;;;;8.72;55.73;101863.64;1758815;81;21219;-48
2022/10/18 04:49:28;;;;;;;16.85;11.05;;;;;;;8.72;55.61;101863.20;1743322;81;21058;-48
2022/10/18 04:51:55;;;;;;;17.42;10.40;;;;;;;8.74;55.46;101863.09;1756229;80;21058;-48
2022/10/18 04:54:22;;;;;;;18.80;11.43;;;;;;;8.75;55.45;101859.56;1747793;81;21051;-48
2022/10/18 04:56:48;;;;;;;16.80;11.15;;;;;;;8.78;55.38;101853.33;1757038;80;21061;-48
2022/10/18 04:59:15;;;;;;;17.15;10.80;;;;;;;8.79;55.33;101851.07;1767507;80;21286;-48
2022/10/18 05:01:42;;;;;;;18.42;11.28;;;;;;;8.80;55.22;101843.59;1769093;80;21039;-48
2022/10/18 05:04:09;;;;;;;15.25;10.08;;;;;;;8.82;55.28;101840.42;1743210;81;21105;-53
2022/10/18 05:06:37;;;;;;;16.75;10.58;;;;;;;8.84;55.21;101842.50;1766516;80;21054;-48
2022/10/18 05:09:05;;;;;;;16.75;10.78;;;;;;;8.86;55.24;101840.20;1771882;80;21511;-48
2022/10/18 05:11:32;;;;;;;18.27;10.72;;;;;;;8.90;55.21;101842.21;1771037;80;21144;-48
2022/10/18 05:13:58;;;;;;;14.98;9.90;;;;;;;8.94;55.14;101833.24;1778944;80;21050;-48
2022/10/18 05:16:27;;;;;;;16.17;9.98;;;;;;;8.98;54.96;101828.24;1775629;80;21110;-48
2022/10/18 05:18:54;;;;;;;16.12;9.93;;;;;;;9.04;54.77;101833.64;1756330;80;21073;-48
2022/10/18 05:21:20;;;;;;;17.70;9.93;;;;;;;9.08;54.75;101836.04;1750991;80;21092;-49
2022/10/18 05:23:47;;;;;;;16.55;9.30;;;;;;;9.16;54.46;101832.16;1767892;80;21233;-48
2022/10/18 05:26:13;;;;;;;19.57;10.20;;;;;;;9.22;54.23;101831.39;1778203;80;20997;-48
2022/10/18 05:28:41;;;;;;;13.50;9.78;;;;;;;9.30;54.23;101831.84;1774007;80;21586;-48
2022/10/18 05:31:10;;;;;;;12.88;9.35;;;;;;;9.38;53.97;101839.34;1779185;80;21070;-48
2022/10/18 05:33:38;;;;;;;13.32;10.08;;;;;;;9.44;53.78;101830.28;1773906;80;21131;-48
2022/10/18 05:36:05;;;;;;;15.80;9.98;;;;;;;9.52;53.73;101835.16;1777148;80;21229;-48
2022/10/18 05:38:32;;;;;;;17.37;8.98;;;;;;;9.58;53.42;101838.75;1778364;80;21581;-49
2022/10/18 05:40:59;;;;;;;15.65;9.10;;;;;;;9.65;53.38;101833.11;1739271;80;21074;-49
2022/10/18 05:43:28;;;;;;;16.00;10.23;;;;;;;9.73;53.20;101836.63;1754275;81;21300;-49
2022/10/18 05:45:54;;;;;;;14.58;9.55;;;;;;;9.81;52.96;101840.17;1750779;81;21015;-50
2022/10/18 05:48:21;;;;;;;13.28;9.00;;;;;;;9.90;52.70;101835.75;1753483;81;21240;-50
2022/10/18 05:50:48;;;;;;;16.23;10.25;;;;;;;9.98;52.29;101831.37;1760204;81;21062;-49
2022/10/18 05:53:15;;;;;;;15.23;9.30;;;;;;;10.05;52.33;101828.77;1750932;81;21078;-48
2022/10/18 05:55:41;;;;;;;13.50;9.40;;;;;;;10.13;52.10;101823.95;1760196;81;21006;-51
2022/10/18 05:58:08;;;;;;;20.50;10.30;;;;;;;10.21;51.96;101827.00;1753204;81;21125;-49
2022/10/18 06:00:35;;;;;;;15.93;9.30;;;;;;;10.30;51.64;101830.06;1755576;79;21238;-48
2022/10/18 06:03:02;;;;;;;17.37;9.58;;;;;;;10.37;51.62;101828.81;1749244;81;21085;-49
2022/10/18 06:05:28;;;;;;;16.32;10.63;;;;;;;10.46;51.74;101835.36;1749608;81;21054;-48
2022/10/18 06:07:55;;;;;;;14.33;9.05;;;;;;;10.55;51.70;101839.61;1748547;81;21067;-49
2022/10/18 06:14:31;;;;;;;16.13;9.13;;;;;;;10.70;51.11;101839.20;1751133;81;21489;-47
2022/10/18 06:17:16;;;;;;;14.28;8.68;;;;;;;10.81;51.24;101826.77;1747426;81;21052;-48
2022/10/18 06:20:00;;;;;;;12.98;9.18;;;;;;;10.89;50.56;101835.06;1755779;79;21070;-49
2022/10/18 06:22:27;;;;;;;20.65;9.98;;;;;;;10.95;50.42;101830.73;1751580;81;21064;-48
2022/10/18 06:24:53;;;;;;;17.98;9.85;;;;;;;11.03;50.27;101834.70;1749594;81;21101;-49
2022/10/18 06:27:20;;;;;;;14.68;9.50;;;;;;;11.11;50.06;101824.11;1752624;81;21255;-48
2022/10/18 06:29:47;;;;;;;14.85;9.45;;;;;;;11.17;50.02;101831.27;1751577;81;21011;-48
2022/10/18 06:32:13;;;;;;;19.20;10.25;;;;;;;11.24;49.58;101837.39;1758208;81;21047;-48
2022/10/18 06:34:40;;;;;;;14.43;9.05;;;;;;;11.33;49.69;101834.22;1751551;81;21089;-48
2022/10/18 06:37:06;;;;;;;15.80;9.53;;;;;;;11.41;49.49;101840.32;1756115;81;21118;-49
2022/10/18 06:39:34;;;;;;;18.82;10.43;;;;;;;11.50;49.38;101842.90;1762012;80;21303;-49
2022/10/18 06:42:01;;;;;;;18.70;8.98;;;;;;;11.60;49.09;101844.03;1749415;81;21160;-48
2022/10/18 06:44:30;;;;;;;17.77;9.75;;;;;;;11.69;49.35;101842.61;1751565;81;21022;-48
2022/10/18 06:46:57;;;;;;;20.12;8.80;;;;;;;11.81;49.02;101841.01;1753648;81;21063;-49
2022/10/18 06:49:25;;;;;;;19.10;8.95;;;;;;;11.90;48.71;101831.19;1749195;81;21076;-49
2022/10/18 06:51:52;;;;;;;13.10;8.55;;;;;;;12.00;48.28;101833.68;1747579;81;21157;-48
2022/10/18 06:54:19;;;;;;;19.37;9.35;;;;;;;12.11;48.23;101830.35;1752526;81;21061;-48
2022/10/18 06:56:46;;;;;;;19.30;9.60;;;;;;;12.20;47.27;101828.44;1756150;81;21010;-49
2022/10/18 06:59:13;;;;;;;13.78;7.85;;;;;;;12.30;47.78;101826.54;1755013;81;21057;-48
2022/10/18 07:01:39;;;;;;;15.05;8.30;;;;;;;12.39;47.09;101820.65;1763487;81;21089;-48
2022/10/18 07:04:06;;;;;;;14.10;7.95;;;;;;;12.48;47.11;101820.06;1759356;81;21141;-48
2022/10/18 07:06:32;;;;;;;15.23;7.97;;;;;;;12.57;47.42;101803.61;1745622;81;21062;-48
2022/10/18 07:09:01;;;;;;;20.75;9.08;;;;;;;12.68;47.17;101807.36;1748184;81;21564;-48
2022/10/18 07:11:27;;;;;;;11.48;8.03;;;;;;;12.80;46.90;101796.80;1758201;81;21065;-48
2022/10/18 07:13:59;;;;;;;13.90;7.83;;;;;;;12.93;46.47;101793.36;1749828;81;21103;-48
2022/10/18 07:16:26;;;;;;;11.15;7.62;;;;;;;13.02;45.77;101792.72;1724557;81;21543;-48
2022/10/18 07:18:53;;;;;;;15.90;8.53;;;;;;;13.15;45.59;101788.29;1751254;81;21368;-48
2022/10/18 07:21:22;;;;;;;18.87;8.63;;;;;;;13.26;45.98;101783.58;1751480;81;21070;-47
2022/10/18 07:23:49;;;;;;;22.15;8.85;;;;;;;13.38;45.49;101787.20;1752620;81;21072;-48
2022/10/18 07:26:26;;;;;;;12.23;6.62;;;;;;;13.51;45.03;101785.87;1758289;81;21073;-48
2022/10/18 07:28:57;;;;;;;10.65;6.20;;;;;;;13.62;44.73;101777.20;1744640;81;21208;-48
2022/10/18 07:31:23;;;;;;;8.93;6.30;;;;;;;13.73;43.95;101772.84;1753358;81;21203;-48
2022/10/18 07:33:51;;;;;;;9.68;6.42;;;;;;;13.86;43.65;101775.44;1753322;81;21529;-49
2022/10/18 07:36:19;;;;;;;14.47;7.42;;;;;;;14.00;43.11;101769.14;1758267;81;21690;-48
2022/10/18 07:38:48;;;;;;;20.45;6.95;;;;;;;14.15;42.25;101767.18;1748489;81;21042;-49
2022/10/18 07:41:14;;;;;;;11.22;6.33;;;;;;;14.30;41.63;101763.40;1751729;81;21143;-48
2022/10/18 07:43:45;;;;;;;11.70;6.22;;;;;;;14.39;41.72;101755.28;1740580;81;21049;-48
2022/10/18 07:46:13;;;;;;;12.95;6.50;;;;;;;14.49;42.04;101760.70;1727840;82;21137;-48
2022/10/18 07:48:39;;;;;;;12.90;6.58;;;;;;;14.60;42.09;101752.84;1740011;81;21593;-49
2022/10/18 07:51:07;;;;;;;10.53;6.10;;;;;;;14.73;42.14;101750.61;1746436;81;21608;-51
2022/10/18 07:53:33;;;;;;;18.45;7.67;;;;;;;14.85;41.73;101743.04;1738740;81;21111;-48
2022/10/18 07:56:05;;;;;;;11.20;6.08;;;;;;;14.97;40.76;101738.11;1740810;81;21011;-53
2022/10/18 07:58:33;;;;;;;9.80;5.60;;;;;;;15.09;40.18;101736.31;1739227;81;21058;-48
2022/10/18 08:01:04;;;;;;;9.73;5.97;;;;;;;15.22;40.32;101736.22;1741261;81;21006;-50
2022/10/18 08:03:35;;;;;;;11.83;5.37;;;;;;;15.33;39.81;101731.38;1737763;80;21093;-47
2022/10/18 08:06:02;;;;;;;19.20;6.47;;;;;;;15.48;40.32;101734.63;1735775;82;21243;-48
2022/10/18 08:08:28;;;;;;;10.85;5.33;;;;;;;15.63;38.64;101738.71;1746544;81;21050;-48
2022/10/18 08:10:55;;;;;;;17.95;6.15;;;;;;;15.75;38.26;101735.13;1718171;83;21110;-48
2022/10/18 08:13:23;;;;;;;8.80;5.25;;;;;;;15.86;38.17;101734.73;1700572;81;21114;-48
2022/10/18 08:15:50;;;;;;;11.48;5.42;;;;;;;15.94;38.03;101727.83;1750093;80;21573;-48
2022/10/18 08:18:18;;;;;;;10.75;5.42;;;;;;;16.03;38.03;101726.23;1727674;81;21550;-49
2022/10/18 08:20:45;;;;;;;23.45;6.78;;;;;;;16.13;38.00;101723.17;1761135;80;21062;-49
2022/10/18 08:23:12;;;;;;;24.00;5.65;;;;;;;16.22;38.43;101718.08;1732589;82;21529;-49
2022/10/18 08:25:39;;;;;;;12.40;5.90;;;;;;;16.32;38.12;101713.69;1734364;81;21077;-48
2022/10/18 08:28:06;;;;;;;13.05;6.20;;;;;;;16.42;37.53;101706.62;1752954;81;21098;-48
2022/10/18 08:30:34;;;;;;;9.58;5.03;;;;;;;16.51;37.66;101705.87;1745992;81;21482;-48
2022/10/18 08:33:02;;;;;;;10.05;4.87;;;;;;;16.62;37.81;101705.44;1741323;81;21049;-49
2022/10/18 08:35:30;;;;;;;10.20;5.47;;;;;;;16.74;37.71;101692.43;1746915;81;21054;-49
2022/10/18 08:37:57;;;;;;;13.08;5.53;;;;;;;16.86;37.89;101688.77;1759226;80;21123;-49
2022/10/18 08:40:25;;;;;;;11.12;5.37;;;;;;;16.98;38.34;101680.22;1745567;80;21069;-49
2022/10/18 08:43:08;;;;;;;10.10;4.80;;;;;;;17.11;37.88;101679.97;1741676;81;22142;-52
2022/10/18 08:45:37;;;;;;;14.03;5.25;;;;;;;17.22;37.29;101685.20;1734985;81;21069;-48
2022/10/18 08:48:05;;;;;;;10.50;5.03;;;;;;;17.34;36.54;101687.77;1752738;81;21648;-49
2022/10/18 08:50:35;;;;;;;11.00;4.80;;;;;;;17.45;35.93;101682.35;1717262;82;21085;-49
2022/10/18 08:53:26;;;;;;;9.88;4.60;;;;;;;17.52;36.23;101676.83;1731513;81;21156;-47
2022/10/18 08:56:10;;;;;;;9.80;5.17;;;;;;;17.60;36.96;101670.33;1721018;82;21348;-48
2022/10/18 08:58:34;;;;;;;9.70;4.25;;;;;;;17.71;35.98;101668.52;1748200;81;21018;-48
2022/10/18 09:01:42;;;;;;;10.95;5.17;;;;;;;17.81;36.73;101658.22;1743519;81;21072;-48
2022/10/18 09:04:46;;;;;;;8.90;5.20;;;;;;;17.93;37.29;101660.29;1688261;84;21127;-48
2022/10/18 09:07:30;;;;;;;9.30;4.22;;;;;;;18.13;36.59;101648.31;1686590;84;21063;-48
2022/10/18 09:10:36;;;;;;;11.65;5.05;;;;;;;18.24;35.80;101642.84;1701934;82;21231;-47
2022/10/18 09:13:42;;;;;;;11.03;5.03;;;;;;;18.33;36.70;101642.47;1739740;81;21092;-48
2022/10/18 09:16:10;;;;;;;14.30;5.97;;;;;;;18.46;36.60;101637.68;1724075;81;21104;-48
2022/10/18 09:18:53;;;;;;;11.97;5.53;;;;;;;18.59;36.20;101636.52;1726526;82;21564;-48
2022/10/18 09:25:44;;;;;;;10.03;4.80;;;;;;;18.84;35.52;101621.22;1724671;81;21972;-50
2022/10/18 09:28:37;;;;;;;8.25;4.47;;;;;;;18.94;35.73;101619.85;1736005;81;21045;-48
2022/10/18 09:31:17;;;;;;;9.35;4.58;;;;;;;19.04;36.52;101611.30;1731256;81;21070;-48
2022/10/18 09:34:05;;;;;;;8.40;4.65;;;;;;;19.18;36.04;101601.98;1739949;81;21031;-48
2022/10/18 09:36:36;;;;;;;8.83;5.15;;;;;;;19.30;35.29;101590.60;1702263;82;21279;-48
2022/10/18 09:39:12;;;;;;;9.83;5.75;;;;;;;19.36;35.57;101581.14;1753932;81;21172;-48
2022/10/18 09:41:44;;;;;;;16.10;5.50;;;;;;;19.45;35.77;101580.22;1742238;81;21095;-48
2022/10/18 09:44:17;;;;;;;10.35;5.33;;;;;;;19.56;35.66;101583.17;1749544;81;21069;-48
2022/10/18 09:46:54;;;;;;;12.37;4.95;;;;;;;19.66;35.06;101577.26;1748189;81;21054;-48
2022/10/18 09:49:34;;;;;;;10.25;5.50;;;;;;;19.76;34.92;101576.70;1767444;81;21110;-48
2022/10/18 09:52:05;;;;;;;10.15;4.85;;;;;;;19.84;34.13;101574.11;1761160;81;21755;-48
2022/10/18 09:54:41;;;;;;;7.55;4.33;;;;;;;19.90;34.35;101573.97;1766901;81;21056;-49
2022/10/18 09:57:24;;;;;;;10.75;5.08;;;;;;;19.94;33.95;101567.34;1756812;81;21107;-49
2022/10/18 09:59:50;;;;;;;9.68;5.22;;;;;;;19.97;34.53;101562.17;1766885;81;21034;-48
2022/10/18 10:02:23;;;;;;;10.25;5.45;;;;;;;20.03;34.86;101557.04;1756035;81;21108;-48
2022/10/18 10:04:50;;;;;;;9.05;5.20;;;;;;;20.12;34.56;101549.08;1769382;81;21847;-48
2022/10/18 10:07:25;;;;;;;12.45;6.08;;;;;;;20.19;34.93;101544.30;1757714;81;21040;-49
2022/10/18 10:10:09;;;;;;;12.75;5.42;;;;;;;20.28;34.50;101542.52;1754498;81;21550;-48
2022/10/18 10:12:37;;;;;;;16.87;6.62;;;;;;;20.36;34.13;101544.41;1761915;81;21097;-48
2022/10/18 10:15:25;;;;;;;7.75;4.35;;;;;;;20.40;33.98;101527.86;1761772;81;21106;-48
2022/10/18 10:17:58;;;;;;;12.37;5.70;;;;;;;20.45;34.37;101534.08;1761816;81;21069;-48
2022/10/18 10:20:30;;;;;;;12.65;6.15;;;;;;;20.51;34.14;101521.89;1761962;81;21081;-48
2022/10/18 10:23:07;;;;;;;15.65;6.22;;;;;;;20.56;33.83;101517.76;1763959;79;21065;-48
2022/10/18 10:25:36;;;;;;;13.15;5.53;;;;;;;20.62;33.97;101508.75;1769117;81;21097;-48
2022/10/18 10:28:15;;;;;;;8.45;5.40;;;;;;;20.69;34.71;101505.80;1765949;81;21053;-47
2022/10/18 10:30:42;;;;;;;7.58;4.80;;;;;;;20.78;34.42;101505.66;1727915;81;21167;-49
2022/10/18 10:33:36;;;;;;;12.58;5.10;;;;;;;20.86;33.29;101504.83;1760218;81;21552;-48
2022/10/18 10:36:07;;;;;;;11.50;5.53;;;;;;;20.86;32.59;101508.02;1756858;81;21052;-49
2022/10/18 10:38:33;;;;;;;10.43;4.85;;;;;;;20.83;33.72;101498.50;1762399;81;21131;-48
2022/10/18 10:41:00;;;;;;;10.08;5.28;;;;;;;20.88;34.25;101493.49;1747550;80;21114;-48
2022/10/18 10:43:35;;;;;;;11.53;5.50;;;;;;;20.95;33.64;101488.33;1752115;81;21357;-49
2022/10/18 10:46:10;;;;;;;;;;;;;;;21.03;33.92;101488.34;1724291;82;21613;-48
2022/10/18 10:48:54;;;;;;;9.58;4.55;;;;;;;21.11;32.46;101480.30;1745334;80;20227;-47
2022/10/18 10:51:38;;;;;;;9.28;5.25;;;;;;;21.15;33.09;101473.63;1752700;81;21070;-48
2022/10/18 10:54:14;;;;;;;20.05;5.35;;;;;;;21.18;32.23;101472.95;1731321;81;21042;-50
2022/10/18 10:57:00;;;;;;;18.12;6.35;;;;;;;21.20;32.62;101466.45;1758496;81;21232;-49
2022/10/18 10:59:30;;;;;;;10.10;5.60;;;;;;;21.25;33.22;101462.77;1748068;81;20958;-48
2022/10/18 11:02:16;;;;;;;12.70;5.95;;;;;;;21.36;33.28;101460.24;1754160;81;21054;-48
2022/10/18 11:04:47;;;;;;;7.75;4.75;;;;;;;21.43;32.64;101457.22;1754939;80;20996;-48
2022/10/18 11:07:28;;;;;;;11.40;5.35;;;;;;;21.52;32.07;101451.41;1753684;80;21166;-47
2022/10/18 11:10:12;;;;;;;10.95;5.62;;;;;;;21.58;32.03;101454.73;1742912;81;21855;-48
2022/10/18 11:13:06;;;;;;;15.58;5.87;;;;;;;21.63;32.08;101438.99;1725316;81;21050;-50
2022/10/18 11:15:38;;;;;;;9.38;5.83;;;;;;;21.70;31.77;101437.33;1737586;80;21094;-68
2022/10/18 11:18:31;;;;;;;16.25;6.95;;;;;;;21.76;31.62;101429.61;1755225;80;21073;-53
2022/10/18 11:21:10;;;;;;;12.68;4.85;;;;;;;21.81;31.75;101425.91;1779489;80;21011;-54
2022/10/18 11:23:38;;;;;;;8.78;4.92;;;;;;;21.84;31.36;101422.39;1747241;80;22810;-53
2022/10/18 11:26:13;;;;;;;14.85;5.60;;;;;;;21.89;31.74;101416.52;1716818;81;21065;-56
2022/10/18 11:29:22;;;;;;;8.63;4.78;;;;;;;21.93;30.84;101417.83;1758455;81;21041;-56
2022/10/18 11:32:22;;;;;;;11.48;5.37;;;;;;;21.97;31.04;101404.44;1756174;81;22227;-51
2022/10/18 11:35:09;;;;;;;8.60;4.70;;;;;;;22.03;30.49;101407.75;1706644;80;21098;-55
2022/10/18 11:38:04;;;;;;;6.58;4.37;;;;;;;22.11;31.35;101392.63;1765581;80;21255;-56
2022/10/18 11:41:17;;;;;;;10.58;4.72;;;;;;;22.14;30.85;101396.31;1712375;82;21064;-56
2022/10/18 11:44:02;;;;;;;11.15;5.33;;;;;;;22.22;30.17;101400.30;1745966;80;21008;-58
2022/10/18 11:58:29;;;;;;;10.70;5.00;;;;;;;23.05;28.51;101371.95;1791715;79;22753;-55
2022/10/18 12:01:04;;;;;;;10.15;4.65;;;;;;;23.17;28.07;101365.67;1753391;81;21011;-56
2022/10/18 12:04:05;;;;;;;7.35;4.80;;;;;;;23.26;28.89;101362.40;1755964;80;20979;-60